Time;durP1;ratioP1;P1;durP2;ratioP2;P2;SDS_P1;SDS_P2;PMS_P1;PMS_P2;Temp;Humidity;BMP_temperature;BMP_pressure;BME280_temperature;BME280_humidity;BME280_pressure;Samples;Min_cycle;Max_cycle;Signal;HPM_P1;HPM_P2
2022/09/16 00:02:11;;;;;;;1.15;0.43;;;;;;;13.58;77.58;99031.44;10503662;28;20094;-72
2022/09/16 00:07:12;;;;;;;0.88;0.45;;;;;;;13.53;78.52;99026.44;10503005;28;20064;-72
2022/09/16 00:12:14;;;;;;;2.47;0.60;;;;;;;13.50;79.72;99023.13;10505395;28;20082;-72
2022/09/16 00:17:16;;;;;;;5.53;0.60;;;;;;;13.52;79.13;99016.84;10485346;28;20047;-72
2022/09/16 00:22:17;;;;;;;3.70;0.77;;;;;;;13.51;78.69;99032.78;10502774;28;20040;-72
2022/09/16 00:27:19;;;;;;;2.42;0.95;;;;;;;13.51;77.66;99030.97;10502777;28;20044;-72
2022/09/16 00:32:22;;;;;;;2.03;0.60;;;;;;;13.33;78.13;99035.56;10503027;28;20406;-72
2022/09/16 00:37:24;;;;;;;1.45;0.50;;;;;;;13.39;77.53;99031.69;10504064;28;20071;-72
2022/09/16 00:42:26;;;;;;;1.13;0.70;;;;;;;13.31;77.61;99026.88;10501896;28;20486;-72
2022/09/16 00:47:33;;;;;;;2.70;0.70;;;;;;;13.27;78.16;99033.25;10483939;28;20086;-72
2022/09/16 00:52:35;;;;;;;3.38;0.77;;;;;;;13.17;78.77;99042.63;10502285;28;20040;-72
2022/09/16 00:57:38;;;;;;;2.28;0.80;;;;;;;13.14;79.65;99040.16;10485188;28;20048;-72
2022/09/16 01:02:42;;;;;;;1.40;0.65;;;;;;;13.14;79.26;99035.72;10500989;28;20044;-72
2022/09/16 01:07:47;;;;;;;1.58;0.73;;;;;;;13.09;79.67;99044.88;10503244;28;20048;-72
2022/09/16 01:12:54;;;;;;;2.53;0.65;;;;;;;13.05;79.78;99038.06;10500860;28;20095;-72
2022/09/16 01:18:01;;;;;;;3.15;0.65;;;;;;;12.82;80.63;99036.75;10515724;22;20044;-70
2022/09/16 01:23:40;;;;;;;4.45;0.95;;;;;;;12.73;81.00;99032.00;10541430;28;20097;-70
2022/09/16 01:29:13;;;;;;;3.10;1.08;;;;;;;12.82;80.58;99042.03;10540904;28;20044;-71
2022/09/16 01:34:37;;;;;;;3.35;0.60;;;;;;;12.70;81.35;99045.34;10541398;28;20048;-71
2022/09/16 01:39:59;;;;;;;2.15;0.70;;;;;;;12.56;82.03;99054.88;10540952;28;20048;-70
2022/09/16 01:45:12;;;;;;;2.58;0.95;;;;;;;12.78;80.23;99051.03;10540918;28;20119;-71
2022/09/16 01:50:18;;;;;;;3.28;0.80;;;;;;;12.65;81.25;99057.94;10541544;28;20055;-70
2022/09/16 01:55:39;;;;;;;2.70;0.60;;;;;;;12.72;81.11;99056.66;10542878;28;20044;-70
2022/09/16 02:00:43;;;;;;;4.40;0.47;;;;;;;12.79;80.55;99058.00;10540546;28;20071;-70
2022/09/16 02:05:57;;;;;;;4.68;0.95;;;;;;;12.72;81.15;99056.66;10521911;28;20067;-70
2022/09/16 02:11:02;;;;;;;1.73;0.68;;;;;;;12.73;81.06;99051.31;10539984;28;20552;-70
2022/09/16 02:16:10;;;;;;;1.02;0.50;;;;;;;12.91;79.95;99051.19;10540130;28;20044;-70
2022/09/16 02:21:15;;;;;;;1.40;0.65;;;;;;;12.73;81.57;99050.44;10521852;28;20566;-70
2022/09/16 02:26:20;;;;;;;2.25;0.65;;;;;;;12.87;81.19;99047.88;10521487;28;20524;-70
2022/09/16 02:31:27;;;;;;;1.80;0.60;;;;;;;12.85;81.60;99053.25;10522679;28;20040;-70
2022/09/16 02:36:31;;;;;;;3.38;0.85;;;;;;;12.89;81.71;99043.38;10540032;28;20046;-70
2022/09/16 02:41:33;;;;;;;4.32;0.70;;;;;;;12.92;81.81;99043.19;10539619;28;20108;-70
2022/09/16 02:46:44;;;;;;;2.67;0.88;;;;;;;12.84;82.78;99041.00;10539394;28;20059;-70
2022/09/16 02:52:23;;;;;;;3.22;0.70;;;;;;;12.86;82.91;99051.47;10521438;28;20040;-70
2022/09/16 02:57:25;;;;;;;3.58;0.93;;;;;;;12.85;83.05;99049.75;10521083;28;20059;-70
2022/09/16 03:02:27;;;;;;;3.80;1.10;;;;;;;12.73;83.76;99034.63;10544380;28;20123;-70
2022/09/16 03:07:29;;;;;;;2.78;0.80;;;;;;;12.93;81.58;99050.19;10529472;28;20043;-70
2022/09/16 03:12:56;;;;;;;2.90;0.63;;;;;;;12.92;82.37;99044.97;10528940;28;20055;-69
2022/09/16 03:18:21;;;;;;;5.10;0.70;;;;;;;12.97;81.90;99042.91;10547051;28;20463;-70
2022/09/16 03:23:35;;;;;;;2.08;0.90;;;;;;;12.85;82.21;99050.63;10547582;28;20036;-70
2022/09/16 03:29:08;;;;;;;2.13;0.82;;;;;;;12.80;82.74;99044.75;10546745;28;20089;-70
2022/09/16 03:34:19;;;;;;;2.78;0.75;;;;;;;12.79;82.97;99043.06;10545764;28;20047;-70
2022/09/16 03:39:21;;;;;;;3.75;1.10;;;;;;;12.75;83.55;99041.53;10546415;28;20447;-70
2022/09/16 03:44:30;;;;;;;2.97;0.80;;;;;;;12.69;83.90;99035.75;10546572;28;20072;-74
2022/09/16 03:49:32;;;;;;;2.33;0.73;;;;;;;12.66;84.49;99033.25;10512304;28;20043;-74
2022/09/16 03:54:35;;;;;;;1.65;0.90;;;;;;;12.65;82.91;99036.84;10546031;28;20078;-74
2022/09/16 03:59:36;;;;;;;2.40;0.65;;;;;;;12.72;81.08;99040.84;10528068;28;20040;-74
2022/09/16 04:04:38;;;;;;;1.40;0.60;;;;;;;12.68;80.62;99034.03;10527133;28;20044;-73
2022/09/16 04:09:40;;;;;;;1.38;0.55;;;;;;;12.59;81.24;99038.91;10527964;28;20146;-74
2022/09/16 04:14:41;;;;;;;1.50;0.63;;;;;;;12.67;81.41;99030.56;10526069;28;20397;-73
2022/09/16 04:19:43;;;;;;;1.55;0.60;;;;;;;12.70;81.23;99029.53;10544946;28;20086;-74
2022/09/16 04:24:45;;;;;;;4.78;1.40;;;;;;;12.71;81.75;99031.25;10525229;28;20085;-74
2022/09/16 04:29:46;;;;;;;3.03;0.93;;;;;;;12.59;83.21;99035.41;10543148;28;20040;-74
2022/09/16 04:34:48;;;;;;;1.73;0.80;;;;;;;12.69;82.33;99028.66;10524949;28;20089;-74
2022/09/16 04:39:49;;;;;;;4.57;0.95;;;;;;;12.70;82.29;99040.06;10542650;28;20089;-74
2022/09/16 04:44:51;;;;;;;4.38;0.90;;;;;;;12.75;81.54;99051.19;10542119;28;20056;-74
2022/09/16 04:49:53;;;;;;;2.15;0.90;;;;;;;12.75;81.73;99046.81;10542406;28;20048;-74
2022/09/16 04:54:54;;;;;;;2.40;0.80;;;;;;;12.71;82.18;99055.81;10523664;28;20413;-73
2022/09/16 04:59:58;;;;;;;5.28;1.20;;;;;;;12.75;82.04;99053.84;10542617;28;20048;-74
2022/09/16 05:05:00;;;;;;;3.05;1.00;;;;;;;12.84;81.87;99056.84;10523961;28;20123;-74
2022/09/16 05:10:02;;;;;;;2.85;1.02;;;;;;;12.67;82.12;99059.56;10541540;28;20048;-75
2022/09/16 05:15:04;;;;;;;2.75;1.13;;;;;;;12.80;80.46;99055.31;10541267;28;20036;-73
2022/09/16 05:20:06;;;;;;;2.40;1.02;;;;;;;12.57;81.81;99059.22;10540778;28;20051;-73
2022/09/16 05:25:08;;;;;;;3.25;0.90;;;;;;;12.48;82.25;99062.34;10539892;28;20032;-73
2022/09/16 05:30:10;;;;;;;2.17;0.73;;;;;;;12.73;79.13;99063.63;10541153;28;20113;-75
2022/09/16 05:35:12;;;;;;;4.18;0.73;;;;;;;12.69;79.20;99062.94;10540583;28;20036;-73
2022/09/16 05:40:13;;;;;;;2.70;0.90;;;;;;;12.72;79.39;99064.59;10540027;28;20047;-73
2022/09/16 05:45:15;;;;;;;2.97;0.77;;;;;;;12.69;79.89;99059.47;10540109;28;20512;-74
2022/09/16 05:50:23;;;;;;;1.92;0.88;;;;;;;12.66;80.86;99054.34;10522014;28;20050;-74
2022/09/16 05:55:25;;;;;;;3.25;0.90;;;;;;;12.94;78.88;99061.59;10539703;28;20095;-73
2022/09/16 06:00:27;;;;;;;2.83;1.02;;;;;;;12.87;79.79;99055.78;10522650;28;20044;-73
2022/09/16 06:05:30;;;;;;;1.92;0.80;;;;;;;12.97;80.10;99051.72;10522107;28;20064;-73
2022/09/16 06:10:39;;;;;;;3.17;0.95;;;;;;;13.08;79.41;99054.56;10522414;28;20098;-73
2022/09/16 06:15:53;;;;;;;1.73;0.80;;;;;;;13.03;80.14;99061.06;10539069;28;20414;-73
2022/09/16 06:20:55;;;;;;;2.33;1.27;;;;;;;13.10;79.67;99055.34;10539392;28;20494;-74
2022/09/16 06:26:06;;;;;;;2.78;1.02;;;;;;;12.94;81.99;99053.66;10539556;28;20066;-74
2022/09/16 06:31:13;;;;;;;3.20;1.10;;;;;;;12.94;82.44;99053.66;10522506;28;20071;-73
2022/09/16 06:36:21;;;;;;;1.88;0.93;;;;;;;13.18;80.41;99062.78;10525782;28;20127;-74
2022/09/16 06:41:23;;;;;;;2.88;1.05;;;;;;;13.28;79.66;99064.03;10548350;28;20040;-74
2022/09/16 06:46:27;;;;;;;4.07;1.10;;;;;;;13.30;79.54;99051.56;10530271;28;20040;-74
2022/09/16 06:51:30;;;;;;;3.72;0.90;;;;;;;13.25;78.83;99058.06;10547183;28;20118;-75
2022/09/16 06:56:34;;;;;;;3.03;1.10;;;;;;;13.41;77.17;99048.28;10548260;28;20040;-73
2022/09/16 07:01:36;;;;;;;2.00;0.60;;;;;;;13.52;76.58;99053.78;10547053;28;20048;-74
2022/09/16 07:06:39;;;;;;;2.38;1.15;;;;;;;13.50;77.33;99060.97;10528767;28;20047;-73
2022/09/16 07:12:01;;;;;;;2.83;0.90;;;;;;;13.53;76.50;99052.84;10546332;28;20052;-75
2022/09/16 07:17:02;;;;;;;2.78;0.70;;;;;;;13.51;78.22;99062.66;10558564;22;20094;-69
2022/09/16 07:22:04;;;;;;;3.05;1.13;;;;;;;13.58;74.92;99066.63;10528433;28;20044;-70
2022/09/16 07:27:06;;;;;;;2.83;0.90;;;;;;;13.75;74.16;99064.78;10546664;28;20059;-69
2022/09/16 07:32:07;;;;;;;2.92;0.80;;;;;;;13.86;74.01;99072.91;10528205;28;20509;-70
2022/09/16 07:37:09;;;;;;;1.73;0.75;;;;;;;13.91;71.86;99076.13;10511799;28;20493;-70
2022/09/16 07:42:11;;;;;;;2.10;0.85;;;;;;;13.95;72.88;99072.34;10546649;28;20045;-70
2022/09/16 07:47:12;;;;;;;2.40;0.60;;;;;;;14.03;71.42;99067.44;10526925;28;20044;-71
2022/09/16 07:52:17;;;;;;;2.95;0.55;;;;;;;14.09;71.39;99063.56;10545816;28;20115;-71
2022/09/16 07:57:18;;;;;;;1.42;0.80;;;;;;;14.21;70.58;99064.59;10545026;28;20402;-71
2022/09/16 08:02:20;;;;;;;3.35;0.85;;;;;;;14.28;70.61;99071.22;10545460;28;20147;-71
2022/09/16 08:07:22;;;;;;;5.07;0.68;;;;;;;14.29;69.68;99073.75;10544775;28;20070;-71
2022/09/16 08:12:24;;;;;;;4.43;0.80;;;;;;;14.39;68.91;99061.66;10544707;28;20048;-71
2022/09/16 08:17:25;;;;;;;1.83;0.80;;;;;;;14.34;67.94;99057.59;10528934;28;20138;-71
2022/09/16 08:22:31;;;;;;;1.20;0.40;;;;;;;14.39;67.69;99059.03;10527586;28;20052;-71
2022/09/16 08:27:35;;;;;;;2.38;0.52;;;;;;;14.35;68.94;99054.03;10544517;28;20040;-71
2022/09/16 08:32:37;;;;;;;2.95;0.70;;;;;;;14.92;66.22;99053.06;10544302;28;20072;-71
2022/09/16 08:37:40;;;;;;;3.53;0.60;;;;;;;14.86;65.51;99054.31;10544349;28;20047;-71
2022/09/16 08:43:18;;;;;;;3.40;0.60;;;;;;;15.18;64.87;99059.28;10544655;28;20106;-71
2022/09/16 08:48:41;;;;;;;4.32;0.47;;;;;;;15.41;64.00;99055.13;10522326;28;20205;-71
2022/09/16 08:53:55;;;;;;;1.90;0.40;;;;;;;15.35;62.22;99057.22;10510470;28;20036;-70
2022/09/16 08:59:00;;;;;;;2.55;0.52;;;;;;;15.26;63.85;99059.63;10525638;28;20087;-71
2022/09/16 09:04:02;;;;;;;1.67;0.32;;;;;;;15.18;63.94;99070.72;10521460;28;20063;-70
2022/09/16 09:09:07;;;;;;;2.88;0.70;;;;;;;14.98;66.33;99069.41;10483390;28;20127;-70
2022/09/16 09:14:15;;;;;;;1.25;0.40;;;;;;;14.77;64.16;99074.28;10501297;28;20049;-71
2022/09/16 09:19:37;;;;;;;2.38;0.60;;;;;;;14.68;66.46;99069.56;10510186;28;20086;-70
2022/09/16 09:25:00;;;;;;;1.85;0.50;;;;;;;14.70;64.56;99070.34;10524100;28;20048;-70
2022/09/16 09:30:13;;;;;;;1.20;0.40;;;;;;;14.71;64.83;99060.59;10523758;28;20056;-70
2022/09/16 09:35:52;;;;;;;1.85;0.50;;;;;;;14.82;63.66;99055.47;10542055;28;20573;-70
2022/09/16 09:41:05;;;;;;;3.13;0.57;;;;;;;15.26;63.02;99052.53;10542754;28;20075;-70
2022/09/16 09:46:10;;;;;;;1.13;0.32;;;;;;;15.29;63.05;99046.19;10505180;28;20048;-71
2022/09/16 09:51:16;;;;;;;2.53;0.55;;;;;;;15.32;62.51;99023.03;10490525;28;20044;-70
2022/09/16 09:56:30;;;;;;;1.73;0.50;;;;;;;15.29;62.21;99030.31;10539723;28;20036;-70
2022/09/16 10:01:31;;;;;;;1.90;0.40;;;;;;;15.38;61.76;99027.88;10486492;28;20080;-71
2022/09/16 10:06:34;;;;;;;1.65;0.40;;;;;;;15.58;62.11;99030.97;10498401;28;20045;-70
2022/09/16 10:11:46;;;;;;;1.50;0.40;;;;;;;15.81;63.00;99025.00;10481242;28;20059;-71
2022/09/16 10:16:50;;;;;;;0.82;0.30;;;;;;;15.99;60.68;99020.22;10499747;28;20383;-70
2022/09/16 10:21:55;;;;;;;1.27;0.70;;;;;;;16.51;59.20;99023.59;10500375;28;20087;-70
2022/09/16 10:26:58;;;;;;;0.73;0.30;;;;;;;15.93;61.42;99019.78;10502434;28;20148;-72
2022/09/16 10:32:16;;;;;;;3.03;0.65;;;;;;;15.04;68.80;99031.94;10501851;28;20044;-71
2022/09/16 10:37:19;;;;;;;3.10;0.77;;;;;;;14.45;77.25;99060.44;10481591;28;20067;-72
2022/09/16 10:42:22;;;;;;;2.78;0.93;;;;;;;14.17;79.21;99032.25;10499302;28;20509;-70
2022/09/16 10:47:27;;;;;;;1.48;0.60;;;;;;;13.99;77.88;99028.06;10482010;28;20139;-70
2022/09/16 10:52:49;;;;;;;2.85;0.45;;;;;;;13.99;78.45;99025.44;10482099;28;20036;-72
2022/09/16 10:57:53;;;;;;;1.00;0.30;;;;;;;14.03;79.48;99030.47;10498881;28;20127;-71
2022/09/16 11:03:36;;;;;;;1.00;0.40;;;;;;;14.82;74.95;99027.19;10499558;28;20041;-71
2022/09/16 11:08:46;;;;;;;0.47;0.25;;;;;;;14.91;70.23;99028.41;10483898;28;20059;-71
2022/09/16 11:14:02;;;;;;;1.63;0.75;;;;;;;14.75;74.89;99040.94;10481077;28;20036;-71
2022/09/16 11:19:19;;;;;;;0.30;0.20;;;;;;;14.20;72.41;99037.31;10497947;28;20150;-71
2022/09/16 11:24:47;;;;;;;0.95;0.40;;;;;;;13.93;80.97;99028.47;10504564;28;20111;-71
2022/09/16 11:30:07;;;;;;;2.58;0.60;;;;;;;14.00;79.39;99037.72;10505447;28;20086;-71
2022/09/16 11:35:35;;;;;;;1.00;0.40;;;;;;;13.93;79.70;99028.47;10505516;28;20051;-71
2022/09/16 11:41:01;;;;;;;1.77;0.47;;;;;;;13.91;77.58;99027.72;10487963;28;20408;-71
2022/09/16 11:46:16;;;;;;;1.07;0.50;;;;;;;13.84;78.99;99019.31;10505581;28;20504;-70
2022/09/16 11:51:29;;;;;;;1.65;0.57;;;;;;;13.98;78.97;99018.47;10504264;28;20079;-71
2022/09/16 11:56:42;;;;;;;1.88;0.50;;;;;;;14.13;81.10;99005.16;10504424;28;20041;-72
2022/09/16 12:02:01;;;;;;;0.57;0.30;;;;;;;14.77;74.83;99002.84;10504553;28;20040;-72
2022/09/16 12:07:08;;;;;;;0.90;0.43;;;;;;;15.20;70.88;98996.53;10504322;28;20502;-71
2022/09/16 12:12:17;;;;;;;0.45;0.20;;;;;;;15.34;65.59;98991.13;10504349;28;20051;-71
2022/09/16 12:17:24;;;;;;;2.05;0.20;;;;;;;15.39;63.64;98989.00;10504538;28;20063;-70
2022/09/16 12:22:32;;;;;;;0.63;0.10;;;;;;;15.47;62.83;98992.00;10502926;28;20048;-71
2022/09/16 12:27:47;;;;;;;2.72;0.40;;;;;;;15.71;62.53;98975.38;10504528;28;20379;-71
2022/09/16 12:33:31;;;;;;;1.20;0.30;;;;;;;16.08;61.28;98982.44;10485618;28;20090;-71
2022/09/16 12:38:34;;;;;;;0.80;0.30;;;;;;;16.11;61.28;98969.00;10415984;28;20114;-71
2022/09/16 12:44:08;;;;;;;2.15;0.38;;;;;;;16.09;60.09;98964.75;10415359;28;20057;-71
2022/09/16 12:50:00;;;;;;;1.17;0.30;;;;;;;15.99;62.25;98953.94;10415603;28;20111;-71
2022/09/16 12:55:30;;;;;;;0.35;0.30;;;;;;;16.20;60.96;98953.34;10415107;28;20144;-74
2022/09/16 13:00:39;;;;;;;0.73;0.40;;;;;;;16.21;58.28;98940.00;10399003;28;20167;-73
2022/09/16 13:05:47;;;;;;;0.40;0.20;;;;;;;16.19;60.10;98939.25;10415762;28;20049;-71
2022/09/16 13:11:02;;;;;;;1.23;0.50;;;;;;;16.27;58.86;98923.63;10453147;28;20463;-72
2022/09/16 13:16:35;;;;;;;1.33;0.38;;;;;;;16.43;56.17;98935.78;10501192;28;20044;-71
2022/09/16 13:21:46;;;;;;;1.52;0.40;;;;;;;16.29;57.78;98923.53;10525158;23;20051;-73
2022/09/16 13:26:47;;;;;;;1.15;0.45;;;;;;;16.33;57.01;98923.19;10522404;28;20052;-74
2022/09/16 13:31:49;;;;;;;0.32;0.32;;;;;;;16.12;57.90;98915.00;10540985;28;20123;-73
2022/09/16 13:36:51;;;;;;;1.50;0.60;;;;;;;16.00;59.85;98920.34;10541039;28;20504;-73
2022/09/16 13:41:53;;;;;;;1.75;0.52;;;;;;;16.05;58.07;98916.41;10540370;28;20496;-74
2022/09/16 13:47:08;;;;;;;1.13;0.40;;;;;;;16.27;54.59;98923.63;10539337;28;20105;-73
2022/09/16 13:52:32;;;;;;;0.40;0.30;;;;;;;16.21;56.35;98921.44;10540815;28;20555;-74
2022/09/16 13:58:01;;;;;;;1.25;0.47;;;;;;;16.13;56.06;98932.59;10539940;28;20036;-73
2022/09/16 14:03:25;;;;;;;1.40;0.40;;;;;;;15.50;58.94;98945.94;10540972;28;20048;-73
2022/09/16 14:08:56;;;;;;;0.98;0.47;;;;;;;15.39;59.05;98941.34;10539946;28;20074;-74
2022/09/16 14:14:26;;;;;;;1.23;0.50;;;;;;;15.31;57.58;98943.66;10539904;28;20033;-73
2022/09/16 14:19:48;;;;;;;0.60;0.20;;;;;;;15.20;56.81;98930.34;10539495;28;20481;-74
2022/09/16 14:24:50;;;;;;;0.63;0.30;;;;;;;15.34;57.39;98914.34;10539579;28;20036;-74
2022/09/16 14:30:16;;;;;;;0.85;0.30;;;;;;;15.46;55.59;98913.50;10540121;28;20051;-74
2022/09/16 14:35:21;;;;;;;0.70;0.20;;;;;;;15.35;53.16;98918.69;10540285;28;20042;-73
2022/09/16 14:40:25;;;;;;;0.70;0.20;;;;;;;15.49;52.37;98910.63;10539603;28;20119;-74
2022/09/16 14:45:30;;;;;;;0.95;0.25;;;;;;;15.63;51.08;98905.22;10539266;28;20180;-75
2022/09/16 14:50:37;;;;;;;0.40;0.32;;;;;;;15.58;52.04;98911.78;10541067;28;20165;-73
2022/09/16 14:55:48;;;;;;;0.25;0.20;;;;;;;15.67;51.25;98907.66;10543120;28;20044;-74
2022/09/16 15:01:14;;;;;;;2.05;0.20;;;;;;;15.48;50.78;98905.44;10552414;28;20401;-75
2022/09/16 15:06:23;;;;;;;0.52;0.10;;;;;;;15.44;51.10;98902.16;10533150;28;20101;-74
2022/09/16 15:11:31;;;;;;;0.50;0.30;;;;;;;15.44;52.61;98906.59;10545686;28;20058;-75
2022/09/16 15:16:54;;;;;;;0.93;0.30;;;;;;;15.51;53.64;98889.34;10546574;28;20472;-73
2022/09/16 15:21:56;;;;;;;0.88;0.30;;;;;;;15.48;53.86;98893.03;10546882;28;20139;-73
2022/09/16 15:27:00;;;;;;;0.93;0.30;;;;;;;15.42;54.36;98887.34;10548182;28;20032;-75
2022/09/16 15:32:15;;;;;;;0.73;0.30;;;;;;;15.31;55.10;98891.56;10550699;28;20055;-75
2022/09/16 15:37:33;;;;;;;1.13;0.40;;;;;;;15.58;53.81;98893.25;10550155;28;20405;-74
2022/09/16 15:42:36;;;;;;;1.73;0.50;;;;;;;15.49;54.31;98883.28;10552397;28;20047;-75
2022/09/16 15:47:53;;;;;;;0.63;0.22;;;;;;;15.47;55.05;98890.50;10554425;28;20107;-75
2022/09/16 15:53:05;;;;;;;1.38;0.80;;;;;;;15.42;53.84;98900.59;10550223;28;20036;-75
2022/09/16 15:58:11;;;;;;;0.47;0.28;;;;;;;15.51;53.37;98902.59;10547334;28;20047;-74
2022/09/16 16:03:19;;;;;;;2.03;1.10;;;;;;;15.16;54.67;98900.56;10547394;28;20044;-74
2022/09/16 16:08:40;;;;;;;0.88;0.25;;;;;;;15.14;54.76;98891.91;10530182;28;20319;-74
2022/09/16 16:13:42;;;;;;;1.23;0.40;;;;;;;15.01;55.08;98901.63;10546954;28;20044;-73
2022/09/16 16:18:45;;;;;;;19.20;16.27;;;;;;;14.74;56.87;98905.19;10547005;28;20405;-75
2022/09/16 16:23:47;;;;;;;5.00;4.60;;;;;;;14.58;57.00;98902.72;10546574;28;20047;-74
2022/09/16 16:28:48;;;;;;;4.38;2.80;;;;;;;14.47;58.25;98904.31;10528254;28;20407;-74
2022/09/16 16:33:50;;;;;;;3.03;2.00;;;;;;;14.34;58.55;98912.19;10526522;28;20066;-75
2022/09/16 16:38:52;;;;;;;1.70;1.42;;;;;;;14.43;58.76;98897.53;10527038;28;20504;-74
2022/09/16 16:43:54;;;;;;;2.30;0.52;;;;;;;14.28;59.97;98900.22;10546673;28;20516;-75
2022/09/16 16:48:56;;;;;;;1.35;0.75;;;;;;;14.36;59.98;98897.09;10544153;28;20048;-73
2022/09/16 16:53:58;;;;;;;5.78;4.30;;;;;;;14.30;61.03;98900.16;10546446;28;20058;-73
2022/09/16 16:59:00;;;;;;;3.50;3.10;;;;;;;14.14;61.73;98898.50;10547266;28;20054;-74
2022/09/16 17:04:04;;;;;;;1.83;0.90;;;;;;;14.27;61.41;98897.69;10549410;28;20070;-75
2022/09/16 17:09:08;;;;;;;3.08;1.95;;;;;;;14.21;61.96;98893.66;10550720;28;20489;-74
2022/09/16 17:14:16;;;;;;;3.67;2.75;;;;;;;14.05;61.96;98901.72;10530230;28;20043;-75
2022/09/16 17:19:18;;;;;;;2.00;0.80;;;;;;;14.01;61.76;98892.28;10529246;28;20055;-75
2022/09/16 17:24:20;;;;;;;3.25;2.70;;;;;;;13.85;62.07;98902.13;10547036;28;20128;-75
2022/09/16 17:29:23;;;;;;;4.88;3.33;;;;;;;13.66;63.55;98898.97;10528803;28;20097;-74
2022/09/16 17:34:25;;;;;;;3.65;2.30;;;;;;;13.55;64.48;98899.66;10528673;28;20050;-74
2022/09/16 17:39:27;;;;;;;2.03;1.55;;;;;;;13.29;66.75;98895.97;10545711;28;20386;-75
2022/09/16 17:44:29;;;;;;;5.47;4.10;;;;;;;13.36;67.97;98899.91;10546012;28;20070;-73
2022/09/16 17:49:31;;;;;;;1.63;1.00;;;;;;;13.39;67.75;98907.63;10543054;28;20118;-73
2022/09/16 17:54:33;;;;;;;3.33;0.95;;;;;;;13.31;68.22;98915.19;10541986;28;20067;-73
2022/09/16 17:59:35;;;;;;;2.33;0.95;;;;;;;13.17;69.23;98904.59;10526115;28;20448;-73
2022/09/16 18:04:37;;;;;;;1.40;0.90;;;;;;;13.09;69.23;98913.78;10545712;28;20036;-73
2022/09/16 18:09:39;;;;;;;1.92;0.90;;;;;;;13.04;69.65;98917.66;10543910;28;20493;-75
2022/09/16 18:14:41;;;;;;;3.92;1.00;;;;;;;12.95;69.66;98913.78;10524298;28;20040;-74
2022/09/16 18:19:43;;;;;;;2.28;1.20;;;;;;;12.90;70.45;98915.84;10543761;28;20040;-73
2022/09/16 18:24:45;;;;;;;1.77;1.08;;;;;;;12.78;70.75;98916.56;10540863;28;20045;-74
2022/09/16 18:29:47;;;;;;;2.67;1.05;;;;;;;12.68;70.47;98924.16;10541082;28;20058;-74
2022/09/16 18:34:49;;;;;;;2.47;1.40;;;;;;;12.83;68.90;98923.25;10531696;28;20044;-73
2022/09/16 18:39:51;;;;;;;2.65;1.40;;;;;;;12.72;68.93;98925.69;10549327;28;20055;-73
2022/09/16 18:44:53;;;;;;;2.38;1.27;;;;;;;12.77;68.37;98925.41;10548902;28;20070;-74
2022/09/16 18:49:55;;;;;;;1.95;1.20;;;;;;;12.71;68.23;98928.41;10548718;28;20040;-73
2022/09/16 18:54:56;;;;;;;1.77;1.20;;;;;;;12.68;68.04;98924.16;10548600;28;20036;-74
2022/09/16 18:59:58;;;;;;;1.88;1.10;;;;;;;12.65;67.80;98931.38;10530272;28;20141;-74
2022/09/16 19:05:00;;;;;;;2.75;1.00;;;;;;;12.70;67.35;98929.31;10548822;28;20051;-73
2022/09/16 19:10:02;;;;;;;0.73;0.60;;;;;;;12.67;67.21;98924.25;10548980;28;20044;-73
2022/09/16 19:15:05;;;;;;;0.50;0.32;;;;;;;12.71;66.24;98925.78;10532280;28;20082;-73
2022/09/16 19:20:07;;;;;;;1.13;0.70;;;;;;;12.78;66.61;98937.66;10533564;28;20555;-72
2022/09/16 19:25:09;;;;;;;2.22;0.75;;;;;;;12.77;66.22;98931.53;10531417;28;20123;-70
2022/09/16 19:30:11;;;;;;;2.17;0.70;;;;;;;12.70;66.47;98937.25;10549215;28;20090;-72
2022/09/16 19:35:14;;;;;;;1.52;0.60;;;;;;;12.71;66.52;98949.50;10551444;28;20451;-71
2022/09/16 19:40:17;;;;;;;1.35;0.60;;;;;;;12.72;66.77;98941.50;10550471;28;20040;-71
2022/09/16 19:45:20;;;;;;;1.42;0.60;;;;;;;12.78;66.28;98950.84;10549929;28;20040;-71
2022/09/16 19:50:28;;;;;;;0.85;0.63;;;;;;;12.63;67.68;98948.16;10551341;28;20052;-71
2022/09/16 19:55:30;;;;;;;1.35;0.60;;;;;;;12.48;68.52;98949.00;10536647;28;20036;-72
2022/09/16 20:00:32;;;;;;;1.30;0.68;;;;;;;12.62;67.73;98951.72;10549945;28;20052;-73
2022/09/16 20:06:09;;;;;;;1.92;0.82;;;;;;;12.60;68.53;98952.75;10554588;28;20067;-72
2022/09/16 20:11:17;;;;;;;1.30;0.70;;;;;;;12.64;68.41;98946.34;10552454;28;20044;-71
2022/09/16 20:16:21;;;;;;;1.33;0.65;;;;;;;12.45;69.24;98943.94;10552550;28;20445;-70
2022/09/16 20:21:25;;;;;;;0.75;0.60;;;;;;;12.51;68.63;98948.00;10550717;28;20047;-71
2022/09/16 20:26:27;;;;;;;2.10;0.60;;;;;;;12.34;69.23;98952.44;10547180;28;20090;-71
2022/09/16 20:31:32;;;;;;;1.10;0.73;;;;;;;12.18;70.38;98943.69;10547308;28;20043;-71
2022/09/16 20:36:36;;;;;;;1.92;0.70;;;;;;;12.31;69.64;98928.91;10544283;28;20119;-71
2022/09/16 20:41:39;;;;;;;2.63;1.10;;;;;;;12.24;70.22;98929.31;10543066;28;20083;-75
2022/09/16 20:46:42;;;;;;;2.25;0.60;;;;;;;12.32;69.20;98933.22;10526003;28;20051;-75
2022/09/16 20:51:44;;;;;;;1.48;0.70;;;;;;;12.30;69.07;98931.59;10543181;28;20068;-76
2022/09/16 20:56:47;;;;;;;3.50;0.95;;;;;;;12.21;69.29;98925.06;10542745;28;20112;-75
2022/09/16 21:01:48;;;;;;;1.67;0.80;;;;;;;12.15;69.80;98935.13;10543577;28;20101;-76
2022/09/16 21:06:50;;;;;;;1.55;0.60;;;;;;;12.23;68.84;98933.75;10542528;28;20046;-75
2022/09/16 21:11:52;;;;;;;1.10;0.60;;;;;;;12.17;69.04;98939.34;10543414;28;20079;-75
2022/09/16 21:16:53;;;;;;;1.05;0.60;;;;;;;12.19;68.02;98934.84;10542319;28;20044;-74
2022/09/16 21:21:55;;;;;;;1.45;0.68;;;;;;;12.12;67.68;98934.34;10542558;28;20094;-74
2022/09/16 21:26:57;;;;;;;0.85;0.60;;;;;;;12.13;66.75;98932.56;10543142;28;20477;-74
2022/09/16 21:31:59;;;;;;;2.15;0.80;;;;;;;11.99;66.52;98940.38;10542399;28;20054;-75
2022/09/16 21:37:02;;;;;;;0.93;0.93;;;;;;;12.02;66.43;98950.75;10542490;28;20043;-75
2022/09/16 21:42:04;;;;;;;3.13;0.50;;;;;;;11.97;65.87;98950.16;10542349;28;20493;-74
2022/09/16 21:47:09;;;;;;;0.70;0.50;;;;;;;11.96;65.26;98943.19;10541608;28;20066;-75
2022/09/16 21:52:10;;;;;;;1.10;0.52;;;;;;;11.89;64.65;98945.28;10541762;28;20386;-74
2022/09/16 21:57:13;;;;;;;0.98;0.60;;;;;;;11.87;64.28;98939.28;10542885;28;20044;-75
2022/09/16 22:02:14;;;;;;;2.15;0.60;;;;;;;11.77;64.84;98944.13;10541886;28;20048;-75
2022/09/16 22:07:16;;;;;;;0.50;0.50;;;;;;;11.66;65.42;98943.88;10540118;28;20047;-75
2022/09/16 22:12:18;;;;;;;1.08;0.60;;;;;;;11.74;65.00;98941.69;10540581;28;20044;-74
2022/09/16 22:17:20;;;;;;;1.40;0.63;;;;;;;11.78;65.30;98940.59;10540258;28;20036;-76
2022/09/16 22:22:22;;;;;;;2.22;0.65;;;;;;;11.69;66.26;98942.88;10541473;28;20088;-75
2022/09/16 22:27:23;;;;;;;2.03;0.65;;;;;;;11.67;66.40;98939.44;10539966;28;20079;-74
2022/09/16 22:32:26;;;;;;;1.55;0.63;;;;;;;11.56;67.31;98927.72;10541100;28;20482;-74
2022/09/16 22:37:27;;;;;;;0.90;0.63;;;;;;;11.61;66.45;98925.69;10540617;28;20044;-74
2022/09/16 22:42:29;;;;;;;3.05;0.82;;;;;;;11.53;66.82;98917.34;10522876;28;20051;-73
2022/09/16 22:47:30;;;;;;;1.75;0.70;;;;;;;11.51;67.19;98913.97;10540422;28;20071;-74
2022/09/16 22:52:32;;;;;;;2.65;0.80;;;;;;;11.49;67.08;98921.06;10539991;28;20044;-74
2022/09/16 22:57:33;;;;;;;2.60;0.90;;;;;;;11.41;67.56;98919.78;10539595;28;20044;-73
2022/09/16 23:02:35;;;;;;;2.50;0.70;;;;;;;11.33;68.14;98920.19;10540253;28;20040;-74
2022/09/16 23:07:37;;;;;;;2.47;0.90;;;;;;;11.33;67.82;98922.81;10539688;28;20040;-75
2022/09/16 23:12:39;;;;;;;2.65;0.80;;;;;;;11.25;68.23;98917.97;10539108;28;20105;-74
2022/09/16 23:17:41;;;;;;;1.73;1.23;;;;;;;11.22;68.55;98922.53;10542672;28;20044;-74
2022/09/16 23:22:42;;;;;;;2.03;0.90;;;;;;;11.19;68.58;98910.38;10547141;28;20098;-74
2022/09/16 23:27:44;;;;;;;4.00;0.90;;;;;;;11.10;68.76;98910.88;10547024;28;20436;-74
2022/09/16 23:32:45;;;;;;;2.30;0.70;;;;;;;11.10;68.36;98897.72;10546707;28;20040;-74
2022/09/16 23:37:48;;;;;;;2.00;0.93;;;;;;;11.06;68.59;98897.00;10529546;28;20044;-74
2022/09/16 23:42:49;;;;;;;2.72;1.08;;;;;;;11.02;68.71;98906.03;10531110;28;20067;-74
2022/09/16 23:47:52;;;;;;;2.50;0.70;;;;;;;11.09;68.36;98903.91;10531186;28;20067;-74